Latest Coastal Weather Observations for Coolangatta (QLD)

IDN60701

Issued at 2:45 pm EDT Sunday 26 October 2014 (issued every 10 minutes, with the page automatically refreshed every 10 minutes)

About coastal observations | Map of coastal stations | Coastal observations for NSW | Marine services | Other Formats
Station Details ID: 040717 Name: COOLANGATTA Lat: -28.17 Lon: 153.51 Height: 4.0 m
Data from the previous 72 hours. | See also: Recent months at Coolangatta (QLD)
Date/Time
EDT
Temp

°C
Wind Pressure Rain
since 9am
mm
Weather Cloud Vis
km
Sea
Height
m
Swell
Dir
 
Speed
knots
Gust
knots
hPa Trend Height
m
Period
s
Dir
26/02:30pm 25.3 N 18 24 1012.9 - 0.0 - - 10 - - - -
26/02:00pm 25.0 N 20 25 1013.4 - 0.0 - - 10 - - - -
26/01:30pm 24.8 N 20 25 1013.8 - 0.0 - - 10 - - - -
26/01:00pm 25.1 N 17 22 1014.4 - 0.0 - - 10 - - - -
26/12:30pm 25.6 N 17 21 1014.8 - 0.0 - - 10 - - - -
26/12:00pm 25.7 N 17 23 1015.2 - 0.0 - - 10 - - - -
26/11:30am 24.7 N 16 22 1015.5 - 0.0 - - 10 - - - -
26/11:00am 25.0 N 17 22 1015.9 - 0.0 - - 10 - - - -
26/10:30am 24.4 N 17 21 1016.2 - 0.0 - - 10 - - - -
26/10:00am 24.5 N 17 22 1016.2 - 0.0 - - 10 - - - -
26/09:30am 24.4 N 13 17 1016.4 - 0.0 - - 10 - - - -
26/09:00am 23.2 N 15 19 1016.2 - 0.0 - - 10 - - - -
26/08:30am 22.7 N 14 18 1016.1 - 0.0 - - 10 - - - -
26/08:00am 21.7 NNW 12 16 1016.0 - 0.0 - - 10 - - - -
26/07:30am 20.6 NNW 7 8 1015.9 - 0.0 - - 10 - - - -
26/07:00am 19.4 NW 7 9 1015.9 - 0.0 - - 10 - - - -
26/06:30am 18.3 NW 6 8 1015.7 - 0.0 - - 10 - - - -
26/06:00am 18.0 NW 5 7 1015.7 - 0.0 - - 10 - - - -
26/05:30am 18.7 NW 5 7 1015.4 - 0.0 - - 10 - - - -
26/05:00am 19.7 NNW 7 8 1015.4 - 0.0 - - 10 - - - -
26/04:30am 20.1 N 10 12 1015.2 - 0.0 - - 10 - - - -
26/04:00am 20.2 N 10 11 1015.1 - 0.0 - - 10 - - - -
26/03:30am 20.2 N 9 11 1015.3 - 0.0 - - 10 - - - -
26/03:00am 20.5 N 10 13 1015.3 - 0.0 - - 10 - - - -
26/02:30am 20.7 N 12 15 1015.4 - 0.0 - - 10 - - - -
26/02:00am 21.0 N 12 16 1015.8 - 0.0 - - 10 - - - -
26/01:30am 21.0 NNW 9 13 1016.5 - 0.0 - - 10 - - - -
26/01:00am 20.2 NW 5 7 1016.8 - 0.0 - - 10 - - - -
26/12:30am 20.3 NW 6 7 1017.1 - 0.0 - - 10 - - - -
26/12:00am 20.5 NW 6 8 1017.0 - 0.0 - - 10 - - - -
 
Date/Time
EDT
Temp

°C
Wind Pressure Rain
since 9am
mm
Weather Cloud Vis
km
Sea
Height
m
Swell
Dir
 
Speed
knots
Gust
knots
hPa Trend Height
m
Period
s
Dir
25/11:30pm 21.1 NNW 7 9 1017.2 - 0.0 - - 10 - - - -
25/11:00pm 21.2 NNW 6 9 1017.4 - 0.0 - Partly cloudy 10 - - - -
25/10:30pm 21.6 NNW 6 9 1017.5 - 0.0 - Partly cloudy 10 - - - -
25/10:00pm 21.6 NNW 10 15 1017.6 - 0.0 - - 10 - - - -
25/09:30pm 21.7 NNW 11 15 1017.6 - 0.0 - - 10 - - - -
25/09:00pm 21.7 N 9 13 1017.3 - 0.0 - - 10 - - - -
25/08:30pm 22.0 N 11 15 1016.8 - 0.0 - - 10 - - - -
25/08:00pm 22.1 N 14 18 1016.5 - 0.0 - - 10 - - - -
25/07:30pm 22.2 N 10 14 1016.5 - 0.0 - - 10 - - - -
25/07:00pm 22.2 N 15 19 1015.6 - 0.0 - - 10 - - - -
25/06:30pm 22.6 N 16 22 1015.4 - 0.0 - - 10 - - - -
25/06:00pm 22.9 N 16 21 1015.0 - 0.0 - - 10 - - - -
25/05:30pm 22.9 N 17 22 1014.7 - 0.0 - - 10 - - - -
25/05:00pm 23.0 N 17 22 1014.4 - 0.0 - - 10 - - - -
25/04:30pm 24.7 N 19 25 1014.5 - 0.0 - - 10 - - - -
25/04:00pm 25.0 N 20 27 1014.6 - 0.0 - - 10 - - - -
25/03:30pm 24.9 N 20 25 1014.8 - 0.0 - - 10 - - - -
25/03:00pm 24.6 N 20 25 1015.1 - 0.0 - - 10 - - - -
25/02:30pm 25.1 N 21 27 1015.5 - 0.0 - - 10 - - - -
25/02:00pm 25.5 N 20 26 1016.3 - 0.0 - - 10 - - - -
25/01:30pm 24.6 N 20 25 1016.6 - 0.0 - - 10 - - - -
25/01:00pm 25.7 N 21 27 1017.0 - 0.0 - Mostly clear 10 - - - -
25/12:30pm 25.4 N 21 26 1017.5 - 0.0 - - 10 - - - -
25/12:00pm 24.8 N 21 26 1018.0 - 0.0 - - 10 - - - -
25/11:30am 24.8 N 18 23 1018.6 - 0.0 - - 10 - - - -
25/11:00am 25.0 N 18 22 1019.2 - 0.0 - - 10 - - - -
25/10:30am 24.7 N 21 25 1019.6 - 0.0 - - 10 - - - -
25/10:00am 24.3 N 18 24 1019.9 - 0.0 - - 10 - - - -
25/09:30am 22.7 N 19 24 1020.1 - 0.0 - - 10 - - - -
25/09:00am 23.5 NNW 14 20 1020.1 - 0.0 - - 10 - - - -
25/08:30am 22.5 NNW 15 21 1020.1 - 0.0 - - 10 - - - -
25/08:00am 21.8 NW 13 17 1020.0 - 0.0 - - 10 - - - -
25/07:30am 20.8 NNW 12 17 1020.1 - 0.0 - - 10 - - - -
25/07:00am 20.0 NW 11 16 1020.1 - 0.0 - Mostly clear 10 - - - -
25/06:30am 19.4 NW 10 14 1019.6 - 0.0 - - 10 - - - -
25/06:00am 18.9 NW 10 15 1019.2 - 0.0 - - 10 - - - -
25/05:30am 18.8 NW 11 16 1019.0 - 0.0 - - 10 - - - -
25/05:00am 18.6 NW 8 11 1019.1 - 0.0 - - 10 - - - -
25/04:30am 18.8 NW 8 12 1018.8 - 0.0 - Partly cloudy 10 - - - -
25/04:00am 18.9 NW 7 10 1018.7 - 0.0 - - 10 - - - -
25/03:30am 18.7 NW 7 11 1018.8 - 0.0 - - 10 - - - -
25/03:00am 18.8 NW 8 11 1018.9 - 0.0 - - 10 - - - -
25/02:30am 18.7 NW 7 10 1019.0 - 0.0 - - 10 - - - -
25/02:00am 18.7 NW 7 9 1019.7 - 0.0 - - 10 - - - -
25/01:30am 19.1 NNW 8 11 1020.0 - 0.0 - - 10 - - - -
25/01:00am 19.5 NNW 8 11 1020.6 - 0.0 - - 10 - - - -
25/12:30am 19.7 NNW 8 12 1021.5 - 0.0 - - 10 - - - -
25/12:00am 20.5 NNW 11 15 1021.8 - 0.0 - Partly cloudy 10 - - - -
 
Date/Time
EDT
Temp

°C
Wind Pressure Rain
since 9am
mm
Weather Cloud Vis
km
Sea
Height
m
Swell
Dir
 
Speed
knots
Gust
knots
hPa Trend Height
m
Period
s
Dir
24/11:30pm 20.5 NNW 9 13 1022.0 - 0.0 - Partly cloudy 10 - - - -
24/11:00pm 21.0 NNW 9 14 1022.2 - 0.0 - Partly cloudy 10 - - - -
24/10:30pm 21.3 NNW 11 15 1022.3 - 0.0 - Cloudy 10 - - - -
24/10:00pm 21.5 N 13 17 1022.3 - 0.0 - Cloudy 10 - - - -
24/09:30pm 21.5 N 14 19 1022.3 - 0.0 - Partly cloudy 10 - - - -
24/09:00pm 21.6 N 14 19 1022.0 - 0.0 - Partly cloudy 10 - - - -
24/08:30pm 21.6 N 13 17 1021.8 - 0.0 - Partly cloudy 10 - - - -
24/08:00pm 21.7 N 11 16 1021.6 - 0.0 - Cloudy 10 - - - -
24/07:30pm 21.7 N 14 17 1021.3 - 0.0 - Partly cloudy 10 - - - -
24/07:00pm 21.7 N 13 16 1021.1 - 0.0 - Cloudy 10 - - - -
24/06:30pm 21.7 N 13 16 1020.6 - 0.0 - Partly cloudy 10 - - - -
24/06:00pm 22.5 NNE 12 15 1020.3 - 0.0 - - 10 - - - -
24/05:30pm 22.8 N 13 16 1020.2 - 0.0 - - 10 - - - -
24/05:00pm 23.5 NNE 14 17 1019.9 - 0.0 - - 10 - - - -
24/04:30pm 23.3 NNE 13 15 1020.0 - 0.0 - - 10 - - - -
24/04:00pm 23.5 NNE 13 16 1020.2 - 0.0 - - 10 - - - -
24/03:30pm 23.9 NNE 13 17 1020.4 - 0.0 - - 10 - - - -
24/03:00pm 24.8 NNE 13 16 1020.6 - 0.0 - - 10 - - - -
24/02:30pm 24.3 NNE 13 16 1021.0 - 0.0 - - 10 - - - -
24/02:00pm 25.2 NNE 14 17 1021.1 - 0.0 - - 10 - - - -
24/01:30pm 24.8 NNE 14 17 1021.2 - 0.0 - - 10 - - - -
24/01:00pm 24.2 NNE 14 17 1021.4 - 0.0 - - 10 - - - -
24/12:30pm 24.9 NNE 15 18 1021.5 - 0.0 - - 10 - - - -
24/12:00pm 24.6 NNE 15 17 1021.9 - 0.0 - - 10 - - - -
24/11:30am 24.5 NNE 13 17 1022.3 - 0.0 - - 10 - - - -
24/11:00am 24.8 N 14 16 1022.5 - 0.0 - - 10 - - - -
24/10:30am 24.2 N 13 15 1022.9 - 0.0 - - 10 - - - -
24/10:00am 23.8 N 11 15 1022.9 - 0.0 - - 10 - - - -
24/09:30am 23.3 N 11 14 1022.7 - 0.0 - - 10 - - - -
24/09:00am 22.8 N 11 15 1022.8 - 0.0 - - 10 - - - -
24/08:30am 22.2 NNW 9 14 1022.7 - 0.0 - Partly cloudy 10 - - - -
24/08:00am 21.3 NW 8 10 1022.7 - 0.0 - Partly cloudy 10 - - - -
24/07:30am 19.7 NW 6 8 1022.6 - 0.0 - Partly cloudy 10 - - - -
24/07:00am 19.3 NW 6 8 1022.2 - 0.0 - Mostly cloudy 10 - - - -
24/06:30am 18.8 NW 6 9 1022.0 - 0.0 - Cloudy 10 - - - -
24/06:00am 18.8 WNW 6 8 1021.7 - 0.0 - Cloudy 10 - - - -
24/05:30am 18.6 NW 5 8 1021.4 - 0.0 - Cloudy 10 - - - -
24/05:00am 18.7 NW 5 7 1021.2 - 0.0 - Cloudy 10 - - - -
24/04:30am 18.9 NW 6 8 1021.0 - 0.0 - Cloudy 10 - - - -
24/04:00am 18.9 WNW 6 8 1021.0 - 0.0 - Cloudy 10 - - - -
24/03:30am 18.9 WNW 6 8 1020.9 - 0.0 - Cloudy 10 - - - -
24/03:00am 18.8 NW 5 7 1020.8 - 0.0 - Cloudy 10 - - - -
24/02:30am 18.4 WNW 5 7 1021.0 - 0.0 - Cloudy 10 - - - -
24/02:00am 18.1 WNW 5 7 1021.2 - 0.0 - Cloudy 10 - - - -
24/01:30am 17.6 WNW 6 7 1021.5 - 0.0 - Partly cloudy 10 - - - -
24/01:00am 17.4 NW 4 5 1021.6 - 0.0 - Mostly clear 10 - - - -
24/12:30am 17.5 NW 5 6 1021.9 - 0.0 - Partly cloudy 10 - - - -
24/12:00am 18.6 WNW 4 5 1021.9 - 0.0 - Partly cloudy 10 - - - -
 
Date/Time
EDT
Temp

°C
Wind Pressure Rain
since 9am
mm
Weather Cloud Vis
km
Sea
Height
m
Swell
Dir
 
Speed
knots
Gust
knots
hPa Trend Height
m
Period
s
Dir
23/11:30pm 20.5 N 10 14 1021.9 - 0.0 - Partly cloudy 10 - - - -
23/11:00pm 20.2 N 10 13 1021.9 - 0.0 - - 10 - - - -
23/10:30pm 20.6 N 10 12 1021.8 - 0.0 - - 10 - - - -
23/10:00pm 21.0 N 10 13 1021.7 - 0.0 - Cloudy 10 - - - -
23/09:30pm 21.0 N 11 14 1021.3 - 0.0 - - 10 - - - -
23/09:00pm 20.8 N 9 11 1021.4 - 0.0 - - 10 - - - -
23/08:30pm 20.8 N 9 11 1021.0 - 0.0 - - 10 - - - -
23/08:00pm 20.9 N 9 12 1020.7 - 0.0 - - 10 - - - -
23/07:30pm 21.0 N 10 12 1020.2 - 0.0 - - 10 - - - -
23/07:00pm 20.9 N 9 11 1019.9 - 0.0 - Mostly clear 10 - - - -
23/06:30pm 21.2 N 10 12 1019.5 - 0.0 - - 10 - - - -
23/06:00pm 21.6 N 11 13 1019.1 - 0.0 - - 10 - - - -
23/05:30pm 22.1 N 11 13 1018.8 - 0.0 - - 10 - - - -
23/05:00pm 22.7 N 11 15 1018.4 - 0.0 - - 10 - - - -
23/04:30pm 22.9 N 13 15 1018.1 - 0.0 - - 10 - - - -
23/04:00pm 23.3 N 13 17 1018.1 - 0.0 - - 10 - - - -

Other Formats:

Comma delimited format used in spreadsheet applications
http://www.bom.gov.au/fwo/IDN60701/IDN60701.94592.axf

JavaScript Object Notation format (JSON) in row-major order
http://www.bom.gov.au/fwo/IDN60701/IDN60701.94592.json